Terminal Aerodrome Forecast
Issued by NWS Corpus Christi, TX

Home | Current Version | Previous Version | Text Only | Print | Product List | Glossary On
Versions: 1 2 3 4 5 6 7 8 9 10 11 12 13 14 15 16 17 18 19 20
279
FTUS44 KCRP 241819 AAA
TAFVCT
TAF AMD
KVCT 241819Z 2418/2518 VRB06KT P6SM VCTS SCT040CB
      TEMPO 2418/2420 VRB10G20KT 3SM -TSRA BKN025CB
     FM242100 13008KT P6SM FEW030
     FM250900 VRB02KT 3SM BR BKN015
     FM251300 23004KT P6SM BKN025=

USA.gov is the U.S. government's official web portal to all federal, state and local government web resources and services.